Terminal Aerodrome Forecast
Issued by NWS Charleston, SC

Home | Current Version | Previous Version | Text Only | Print | Product List | Glossary On
Versions: 1 2 3 4 5 6 7 8 9 10 11 12 13 14 15 16 17 18
000
FTUS42 KCHS 210500
TAFSAV
TAF
KSAV 210522Z 2106/2206 33005KT P6SM SCT040 BKN150
     FM211300 28007KT P6SM FEW250
     FM212200 22003KT P6SM SKC=

USA.gov is the U.S. government's official web portal to all federal, state and local government web resources and services.